Ramseur, North Carolina
Current Conditions -  °F | °C
As of 10:30 AM on Monday 22 Dec 2014 (Local Time) from K5W8 Reporting Station
Overcast Overcast  
Wind Chill: 30°   Ceiling: 500
Heat Index: 36°   Visibility: 7mi
Dew Point: 36°   Wind: 8mph
Humidity: 99%   Direction: 10°N
Pressure: 30.15"   Gusts: NA
Location:  35.73°N, 79.65°W
Report Text: K5W8 221530Z AUTO 01007KT 7SM OVC005 02/02 A3015 RMK AO2 T00230022
Loading
Personal Weather Stations






























Interactive Weather Map New forecast layout! Learn more

10-Day Weather Forecast

Advertisements
Track Severe Weather on mobile